Forside
METAR-TAF:

METAR-TAF

Lufthavne :

Teheran, Iran

Breddekreds: 35-41N, længdekreds: 051-21E, højde: 1204 m

Aktuelle vejr

Denne rapport blev lavet for 32 minutter siden, kl. 20:30 UTC
Vind 4 kt fra nordnordøst
Temperatur 29°C
Fugtighed 14%
Tryk 1012 hPa
Sigt 10 km eller mere
ingen skyer under 1500m og ingen cumulonimbus

METAR: OIII 142030Z 03004KT CAVOK 29/M01 Q1011 A2988 NOSIG

Tid: 01:32 (21:02 UTC)

Vejrudsigter

Denne rapport blev lavet for 3 timer og 32 minutter siden, kl. 17:30 UTC
Foreløbig gælder fra 14 på 18 UTC til 15 på 24 UTC
Vind 8 kt fra nordnordvest
Sigt 10 km eller mere
ingen skyer under 1500m og ingen cumulonimbus
ændring
fra 15 på 06 UTC til 15 på 08 UTC
Vind 10 kt fra sydøst
ændring
fra 15 på 18 UTC til 15 på 20 UTC
Vind 6 kt fra nordnordvest

TAF: OIII 141730Z 1418/1524 33004MPS CAVOK BECMG 1506/1508 14005MPS BECMG 1518/1520 33003MPS

Vejrobservationer og prognoser fra mere end 4000 lufthavne (METAR og TAF).

De gule og røde prikker repræsenterer de meteorologiske stationer.

Flyt musen over at se navnet på stationen.

Så klik over at se vejr observationer og prognoser.

At skifte det kort: Klik på de grønne knapper med et sort kors for at zoome ind; på den grønne knap med en bindestreg for at zoome ud; eller på de grønne pile for tilstødende kort.


METAR-TAF: